Latest Weather Observations for North Head

IDN60801

Issued at 5:13 pm EDT Saturday 5 December 2020 (issued every 10 minutes, with the page automatically refreshed every 10 minutes)

About weather observations | Map of weather stations | Latest weather observations for NSW | Other Formats
Station Details ID: 066197 Name: NORTH HEAD Lat: -33.82 Lon: 151.30 Height: 90.0 m
Data from the previous 72 hours. | See also: Recent months at North Head
Date/Time
EDT
Temp
°C
App
Temp
°C
Dew
Point
°C
Rel
Hum
%
Delta-T
°C
Wind Press
QNH
hPa
Press
MSL
hPa
Rain since
9am
mm
Dir  Spd
km/h
Gust
km/h
Spd
kts
Gust
kts
05/05:00pm - - - - - NNE 19 30 10 16 - - -
05/04:30pm - - - - - NNE 17 22 9 12 - - -
05/04:00pm - - - - - NE 17 22 9 12 - - -
05/03:30pm - - - - - NNE 11 19 6 10 - - -
05/03:00pm - - - - - NE 9 17 5 9 - - -
05/02:30pm - - - - - NNE 9 15 5 8 - - -
05/02:00pm - - - - - N 9 15 5 8 - - -
05/01:30pm - - - - - NNE 9 15 5 8 - - -
05/01:00pm - - - - - ENE 7 13 4 7 - - -
05/12:30pm - - - - - ENE 7 13 4 7 - - -
05/12:00pm - - - - - NNE 7 13 4 7 - - -
05/11:30am - - - - - ENE 9 11 5 6 - - -
05/11:00am - - - - - E 11 15 6 8 - - -
05/10:30am - - - - - ENE 11 15 6 8 - - -
05/10:00am - - - - - ENE 11 17 6 9 - - -
05/09:30am - - - - - ENE 9 15 5 8 - - -
05/09:00am - - - - - E 11 20 6 11 - - -
05/08:30am - - - - - ESE 13 19 7 10 - - -
05/08:00am - - - - - ESE 17 22 9 12 - - -
05/07:30am - - - - - ESE 17 24 9 13 - - -
05/07:00am - - - - - ESE 17 22 9 12 - - -
05/06:30am - - - - - ESE 17 20 9 11 - - -
05/06:00am - - - - - ESE 17 24 9 13 - - -
05/05:30am - - - - - ESE 19 26 10 14 - - -
05/05:00am - - - - - SE 17 26 9 14 - - -
05/04:30am - - - - - SE 15 24 8 13 - - -
05/04:00am - - - - - SE 19 28 10 15 - - -
05/03:30am - - - - - SE 15 24 8 13 - - -
05/03:00am - - - - - SSE 13 17 7 9 - - -
05/02:30am - - - - - SSE 13 19 7 10 - - -
05/02:00am - - - - - SSE 19 26 10 14 - - -
05/01:30am - - - - - SSE 19 24 10 13 - - -
05/01:00am - - - - - S 17 24 9 13 - - -
05/12:30am - - - - - S 17 22 9 12 - - -
05/12:00am - - - - - S 15 26 8 14 - - -
 
Date/Time
EDT
Temp
°C
App
Temp
°C
Dew
Point
°C
Rel
Hum
%
Delta-T
°C
Wind Press
QNH
hPa
Press
MSL
hPa
Rain since
9am
mm
Dir  Spd
km/h
Gust
km/h
Spd
kts
Gust
kts
04/11:30pm - - - - - S 19 28 10 15 - - -
04/11:00pm - - - - - S 17 26 9 14 - - -
04/10:30pm - - - - - S 19 32 10 17 - - -
04/10:00pm - - - - - S 15 20 8 11 - - -
04/09:30pm - - - - - SSE 9 17 5 9 - - -
04/09:00pm - - - - - NNE 15 22 8 12 - - -
04/08:30pm - - - - - NNE 17 24 9 13 - - -
04/08:00pm - - - - - NNE 15 22 8 12 - - -
04/07:30pm - - - - - NNE 17 22 9 12 - - -
04/07:00pm - - - - - NNE 13 20 7 11 - - -
04/06:30pm - - - - - NNE 13 20 7 11 - - -
04/06:00pm - - - - - NNE 13 19 7 10 - - -
04/05:30pm - - - - - NE 11 17 6 9 - - -
04/05:00pm - - - - - ENE 13 19 7 10 - - -
04/04:30pm - - - - - ENE 13 17 7 9 - - -
04/04:00pm - - - - - E 13 17 7 9 - - -
04/03:30pm - - - - - ESE 11 17 6 9 - - -
04/03:00pm - - - - - E 11 15 6 8 - - -
04/02:30pm - - - - - E 13 19 7 10 - - -
04/02:00pm - - - - - ENE 15 19 8 10 - - -
04/01:30pm - - - - - ENE 11 19 6 10 - - -
04/01:00pm - - - - - ENE 17 20 9 11 - - -
04/12:30pm - - - - - E 15 20 8 11 - - -
04/12:00pm - - - - - ESE 9 13 5 7 - - -
04/11:30am - - - - - SE 11 13 6 7 - - -
04/11:00am - - - - - SSE 13 19 7 10 - - -
04/10:30am - - - - - SSE 13 17 7 9 - - -
04/10:00am - - - - - S 9 13 5 7 - - -
04/09:30am - - - - - SSE 7 13 4 7 - - -
04/09:00am - - - - - SW 6 9 3 5 - - -
04/08:30am - - - - - SSW 7 11 4 6 - - -
04/08:00am - - - - - SSW 9 13 5 7 - - -
04/07:30am - - - - - SSW 9 15 5 8 - - -
04/07:00am - - - - - SW 11 19 6 10 - - -
04/06:30am - - - - - W 9 13 5 7 - - -
04/06:00am - - - - - WNW 7 9 4 5 - - -
04/05:30am - - - - - WSW 7 9 4 5 - - -
04/05:00am - - - - - WSW 9 11 5 6 - - -
04/04:30am - - - - - WSW 9 11 5 6 - - -
04/04:00am - - - - - W 9 11 5 6 - - -
04/03:30am - - - - - W 7 9 4 5 - - -
04/03:00am - - - - - WNW 4 6 2 3 - - -
04/02:30am - - - - - WNW 4 4 2 2 - - -
04/02:00am - - - - - W 4 6 2 3 - - -
04/01:30am - - - - - WNW 6 6 3 3 - - -
04/01:00am - - - - - NW 6 7 3 4 - - -
04/12:30am - - - - - N 7 9 4 5 - - -
04/12:00am - - - - - N 7 11 4 6 - - -
 
Date/Time
EDT
Temp
°C
App
Temp
°C
Dew
Point
°C
Rel
Hum
%
Delta-T
°C
Wind Press
QNH
hPa
Press
MSL
hPa
Rain since
9am
mm
Dir  Spd
km/h
Gust
km/h
Spd
kts
Gust
kts
03/11:30pm - - - - - NNE 7 11 4 6 - - -
03/11:00pm - - - - - N 9 15 5 8 - - -
03/10:30pm - - - - - NNE 13 20 7 11 - - -
03/10:00pm - - - - - NNE 9 17 5 9 - - -
03/09:30pm - - - - - NNE 7 13 4 7 - - -
03/09:00pm - - - - - N 13 20 7 11 - - -
03/08:30pm - - - - - NNE 11 17 6 9 - - -
03/08:00pm - - - - - NNE 11 19 6 10 - - -
03/07:30pm - - - - - NNE 9 13 5 7 - - -
03/07:00pm - - - - - NE 9 15 5 8 - - -
03/06:30pm - - - - - NNE 11 15 6 8 - - -
03/06:00pm - - - - - NNE 13 19 7 10 - - -
03/05:30pm - - - - - NE 15 22 8 12 - - -
03/05:00pm - - - - - NE 13 22 7 12 - - -
03/04:30pm - - - - - NE 20 30 11 16 - - -
03/04:00pm - - - - - NE 19 28 10 15 - - -
03/03:30pm - - - - - NNE 15 24 8 13 - - -
03/03:00pm - - - - - NE 13 20 7 11 - - -
03/02:30pm - - - - - NNE 15 24 8 13 - - -
03/02:00pm - - - - - NNE 19 28 10 15 - - -
03/01:30pm - - - - - NNE 13 20 7 11 - - -
03/01:00pm - - - - - NNE 13 20 7 11 - - -
03/12:30pm - - - - - N 13 20 7 11 - - -
03/12:00pm - - - - - N 11 19 6 10 - - -
03/11:30am - - - - - NNE 17 24 9 13 - - -
03/11:00am - - - - - NNE 15 24 8 13 - - -
03/10:30am - - - - - NNE 15 24 8 13 - - -
03/10:00am - - - - - NE 13 22 7 12 - - -
03/09:30am - - - - - NE 15 22 8 12 - - -
03/09:00am - - - - - ENE 15 22 8 12 - - -
03/08:30am - - - - - ENE 15 24 8 13 - - -
03/08:00am - - - - - ENE 19 30 10 16 - - -
03/07:30am - - - - - ENE 17 24 9 13 - - -
03/07:00am - - - - - ENE 15 24 8 13 - - -
03/06:30am - - - - - ENE 15 24 8 13 - - -
03/06:00am - - - - - E 17 24 9 13 - - -
03/05:30am - - - - - E 17 28 9 15 - - -
03/05:00am - - - - - E 17 24 9 13 - - -
03/04:30am - - - - - E 17 26 9 14 - - -
03/04:00am - - - - - E 15 26 8 14 - - -
03/03:30am - - - - - E 15 26 8 14 - - -
03/03:00am - - - - - ESE 19 26 10 14 - - -
03/02:30am - - - - - ESE 19 24 10 13 - - -
03/02:00am - - - - - ESE 20 28 11 15 - - -
03/01:30am - - - - - ESE 15 22 8 12 - - -
03/01:00am - - - - - SE 11 17 6 9 - - -
03/12:30am - - - - - ESE 13 22 7 12 - - -
03/12:00am - - - - - ESE 19 26 10 14 - - -
 
Date/Time
EDT
Temp
°C
App
Temp
°C
Dew
Point
°C
Rel
Hum
%
Delta-T
°C
Wind Press
QNH
hPa
Press
MSL
hPa
Rain since
9am
mm
Dir  Spd
km/h
Gust
km/h
Spd
kts
Gust
kts
02/11:30pm - - - - - ESE 19 30 10 16 - - -
02/11:00pm - - - - - ESE 24 33 13 18 - - -
02/10:30pm - - - - - ESE 20 32 11 17 - - -
02/10:00pm - - - - - E 13 24 7 13 - - -
02/09:30pm - - - - - ESE 17 32 9 17 - - -
02/09:00pm - - - - - ESE 20 30 11 16 - - -
02/08:30pm - - - - - ESE 26 35 14 19 - - -
02/08:00pm - - - - - ESE 24 35 13 19 - - -
02/07:30pm - - - - - ESE 24 32 13 17 - - -
02/07:00pm - - - - - ESE 22 32 12 17 - - -
02/06:30pm - - - - - ESE 24 32 13 17 - - -
02/06:00pm - - - - - ESE 20 28 11 15 - - -
02/05:30pm - - - - - ESE 17 26 9 14 - - -

Other formats

Comma delimited format used in spreadsheet applications
http://www.bom.gov.au/fwo/IDN60801/IDN60801.95768.axf

JavaScript Object Notation format (JSON) in row-major order
http://www.bom.gov.au/fwo/IDN60801/IDN60801.95768.json

Data quality

Most of these data are generated automatically and are frequently updated. Quality checks on data are not normally performed. It is possible for incorrect values to appear. Refer to information at About Latest Weather Observations and please check the disclaimer before using these data.